Time;durP1;ratioP1;P1;durP2;ratioP2;P2;SDS_P1;SDS_P2;PMS_P1;PMS_P2;Temp;Humidity;BMP_temperature;BMP_pressure;BME280_temperature;BME280_humidity;BME280_pressure;Samples;Min_cycle;Max_cycle;Signal;HPM_P1;HPM_P2
2023/10/25 00:02:24;;;;;;;42.22;37.72;;;17.80;99.90;;;;;;5065645;28;20546;-71
2023/10/25 00:04:54;;;;;;;42.10;37.03;;;17.70;99.90;;;;;;5066015;28;20543;-74
2023/10/25 00:07:20;;;;;;;42.67;36.97;;;17.80;99.90;;;;;;5057802;28;20101;-71
2023/10/25 00:09:46;;;;;;;48.83;38.97;;;17.60;99.90;;;;;;5065347;28;20037;-72
2023/10/25 00:12:11;;;;;;;41.88;37.08;;;17.60;99.90;;;;;;5066092;28;20045;-73
2023/10/25 00:14:37;;;;;;;40.45;35.83;;;17.80;99.90;;;;;;5069599;28;20040;-72
2023/10/25 00:17:02;;;;;;;40.55;35.90;;;17.60;1.00;;;;;;5068902;28;20037;-72
2023/10/25 00:19:28;;;;;;;45.47;35.55;;;17.60;1.00;;;;;;5067501;28;20051;-71
2023/10/25 00:21:53;;;;;;;39.88;35.42;;;18.00;1.00;;;;;;5068923;28;20506;-72
2023/10/25 00:24:19;;;;;;;42.25;35.67;;;17.80;1.00;;;;;;5084971;28;20044;-71
2023/10/25 00:26:44;;;;;;;44.83;35.83;;;17.60;1.00;;;;;;5069202;28;20037;-73
2023/10/25 00:29:10;;;;;;;39.38;34.88;;;17.80;1.00;;;;;;5068663;28;20393;-73
2023/10/25 00:31:35;;;;;;;40.30;35.58;;;17.80;1.00;;;;;;5068908;28;20052;-73
2023/10/25 00:34:01;;;;;;;43.67;36.13;;;18.00;1.00;;;;;;5068857;28;20054;-73
2023/10/25 00:36:27;;;;;;;38.08;34.22;;;17.60;1.00;;;;;;5068703;28;20060;-73
2023/10/25 00:38:52;;;;;;;40.08;34.65;;;17.40;1.00;;;;;;5066987;28;20052;-73
2023/10/25 00:41:18;;;;;;;41.33;34.65;;;17.40;4.50;;;;;;5068864;28;20055;-71
2023/10/25 00:43:43;;;;;;;39.05;34.42;;;17.40;36.10;;;;;;5069035;28;20109;-71
2023/10/25 00:46:11;;;;;;;37.47;33.15;;;17.50;27.30;;;;;;5068992;28;20044;-71
2023/10/25 00:48:39;;;;;;;38.20;33.40;;;17.40;6.70;;;;;;5069033;28;20048;-72
2023/10/25 00:51:06;;;;;;;38.30;33.33;;;17.50;13.20;;;;;;5067123;28;20052;-71
2023/10/25 00:53:33;;;;;;;35.90;32.50;;;17.40;13.70;;;;;;5068677;28;20079;-70
2023/10/25 00:56:01;;;;;;;38.28;34.10;;;17.20;12.80;;;;;;5068447;28;20040;-73
2023/10/25 00:58:28;;;;;;;40.08;35.88;;;17.20;11.10;;;;;;5068926;28;20051;-68
2023/10/25 01:00:55;;;;;;;38.70;34.67;;;17.30;42.20;;;;;;5068736;28;20115;-70
2023/10/25 01:03:21;;;;;;;39.92;35.05;;;17.40;91.60;;;;;;5068306;28;20152;-71
2023/10/25 01:05:47;;;;;;;39.38;34.65;;;17.30;99.90;;;;;;5068043;28;20395;-72
2023/10/25 01:08:20;;;;;;;38.25;33.53;;;17.20;99.90;;;;;;5068016;28;20098;-71
2023/10/25 01:10:50;;;;;;;43.15;34.03;;;17.40;99.90;;;;;;5059047;28;20531;-73
2023/10/25 01:13:16;;;;;;;39.35;34.15;;;17.20;99.90;;;;;;5068133;28;20075;-64
2023/10/25 01:15:42;;;;;;;37.03;33.00;;;17.00;99.90;;;;;;5068073;28;20048;-63
2023/10/25 01:18:08;;;;;;;38.15;34.17;;;17.30;99.90;;;;;;5068266;28;20490;-63
2023/10/25 01:20:35;;;;;;;37.85;33.90;;;17.20;99.90;;;;;;5067138;28;20059;-63
2023/10/25 01:23:00;;;;;;;38.35;33.58;;;17.20;99.90;;;;;;5067621;28;20055;-63
2023/10/25 01:25:26;;;;;;;38.40;34.50;;;17.10;99.90;;;;;;5068153;28;20044;-62
2023/10/25 01:27:52;;;;;;;42.00;34.92;;;17.20;99.90;;;;;;5061417;28;20471;-63
2023/10/25 01:30:17;;;;;;;37.72;33.78;;;17.20;99.90;;;;;;5064738;28;20054;-63
2023/10/25 01:32:43;;;;;;;38.83;34.03;;;17.30;99.90;;;;;;5068107;28;20036;-64
2023/10/25 01:35:10;;;;;;;38.40;34.25;;;17.10;99.90;;;;;;5067957;28;20048;-64
2023/10/25 01:37:36;;;;;;;37.50;33.53;;;17.30;99.90;;;;;;5067601;28;20044;-64
2023/10/25 01:40:03;;;;;;;37.42;33.63;;;17.20;99.90;;;;;;5067583;28;20045;-63
2023/10/25 01:42:29;;;;;;;40.80;34.22;;;17.10;99.90;;;;;;5068171;28;20536;-65
2023/10/25 01:44:55;;;;;;;38.75;34.55;;;17.00;99.90;;;;;;5067498;28;20055;-63
2023/10/25 01:47:20;;;;;;;39.03;33.75;;;17.20;99.90;;;;;;5067492;28;20482;-63
2023/10/25 01:49:46;;;;;;;40.08;32.95;;;17.00;99.90;;;;;;5067255;28;20045;-63
2023/10/25 01:52:11;;;;;;;36.53;32.88;;;17.30;99.90;;;;;;5067980;28;20043;-62
2023/10/25 01:54:37;;;;;;;39.95;33.38;;;17.30;99.90;;;;;;5067316;28;20040;-64
2023/10/25 01:57:03;;;;;;;36.55;32.25;;;17.10;99.90;;;;;;5067421;28;20072;-63
2023/10/25 01:59:29;;;;;;;37.42;33.42;;;17.10;99.90;;;;;;5066947;28;20048;-62
2023/10/25 02:01:54;;;;;;;38.47;33.03;;;17.20;99.90;;;;;;5067143;28;20497;-63
2023/10/25 02:04:20;;;;;;;41.47;33.05;;;17.20;99.90;;;;;;5067399;28;20202;-63
2023/10/25 02:06:45;;;;;;;38.10;33.88;;;17.30;99.90;;;;;;5082921;28;20044;-63
2023/10/25 02:09:12;;;;;;;38.40;34.10;;;17.30;99.90;;;;;;5062553;28;20041;-64
2023/10/25 02:11:38;;;;;;;37.65;33.88;;;17.00;99.90;;;;;;5067066;28;20050;-62
2023/10/25 02:14:03;;;;;;;36.97;33.00;;;17.20;99.90;;;;;;5067118;28;20036;-65
2023/10/25 02:16:29;;;;;;;39.03;33.40;;;17.20;99.90;;;;;;5067339;28;20072;-64
2023/10/25 02:18:54;;;;;;;36.95;33.20;;;17.20;99.90;;;;;;5066282;28;20036;-63
2023/10/25 02:21:20;;;;;;;38.03;33.05;;;17.20;99.90;;;;;;5066430;28;20071;-64
2023/10/25 02:23:45;;;;;;;36.90;32.97;;;17.00;99.90;;;;;;5067116;28;20129;-62
2023/10/25 02:26:11;;;;;;;36.53;32.85;;;17.00;99.90;;;;;;5067194;28;20094;-63
2023/10/25 02:28:36;;;;;;;36.80;32.85;;;17.00;99.90;;;;;;5066285;28;20055;-62
2023/10/25 02:31:02;;;;;;;37.67;33.63;;;17.10;96.50;;;;;;5065854;28;20535;-62
2023/10/25 02:33:28;;;;;;;37.83;33.92;;;15.70;77.60;;;;;;5067560;28;20044;-62
2023/10/25 02:35:53;;;;;;;39.92;34.20;;;16.90;36.80;;;;;;5066803;28;20114;-64
2023/10/25 02:38:19;;;;;;;36.97;33.17;;;17.00;26.20;;;;;;5067193;28;20120;-63
2023/10/25 02:40:44;;;;;;;37.28;33.58;;;16.90;24.40;;;;;;5066061;28;20040;-64
2023/10/25 02:43:10;;;;;;;37.47;33.60;;;16.90;12.10;;;;;;5067076;28;20162;-63
2023/10/25 02:45:35;;;;;;;37.38;33.63;;;16.70;12.80;;;;;;5066755;28;20395;-61
2023/10/25 02:48:01;;;;;;;37.00;33.42;;;17.10;51.00;;;;;;5066797;28;20037;-63
2023/10/25 02:50:27;;;;;;;36.72;32.85;;;16.90;96.90;;;;;;5066096;28;20148;-61
2023/10/25 02:52:53;;;;;;;38.17;34.38;;;17.00;99.90;;;;;;5066582;28;20044;-64
2023/10/25 02:55:19;;;;;;;38.40;34.40;;;16.90;99.90;;;;;;5066735;28;20032;-63
2023/10/25 02:57:45;;;;;;;40.15;36.22;;;16.90;99.90;;;;;;5066403;28;20052;-63
2023/10/25 03:00:11;;;;;;;40.00;35.70;;;16.80;99.90;;;;;;5066091;28;20050;-62
2023/10/25 03:02:37;;;;;;;39.78;35.85;;;17.00;99.90;;;;;;5066287;28;20045;-62
2023/10/25 03:05:03;;;;;;;42.63;37.47;;;17.20;99.90;;;;;;5066576;28;20047;-61
2023/10/25 03:07:28;;;;;;;39.95;35.90;;;17.20;99.90;;;;;;5066310;28;20375;-63
2023/10/25 03:09:54;;;;;;;39.20;35.03;;;17.20;1.00;;;;;;5059196;28;20032;-64
2023/10/25 03:12:19;;;;;;;39.00;34.80;;;17.20;1.00;;;;;;5066171;28;20040;-62
2023/10/25 03:14:45;;;;;;;41.15;36.90;;;17.20;1.00;;;;;;5066169;28;20035;-63
2023/10/25 03:17:10;;;;;;;42.38;36.10;;;17.10;1.00;;;;;;5065778;28;20120;-62
2023/10/25 03:19:36;;;;;;;41.63;35.90;;;17.40;1.00;;;;;;5054000;28;20056;-63
2023/10/25 03:22:03;;;;;;;40.08;35.47;;;17.30;10.90;;;;;;5066378;28;20056;-62
2023/10/25 03:24:29;;;;;;;41.08;36.70;;;17.40;35.00;;;;;;5066679;28;20070;-62
2023/10/25 03:26:55;;;;;;;41.47;37.08;;;17.30;43.50;;;;;;5081681;28;20044;-63
2023/10/25 03:29:21;;;;;;;42.08;37.53;;;17.40;52.10;;;;;;5062902;28;20134;-62
2023/10/25 03:31:47;;;;;;;40.25;36.10;;;17.40;69.10;;;;;;5065914;28;20124;-73
2023/10/25 03:34:14;;;;;;;40.00;35.78;;;17.40;67.70;;;;;;5066975;28;20040;-67
2023/10/25 03:36:40;;;;;;;39.60;35.50;;;17.40;69.10;;;;;;5066640;28;20082;-67
2023/10/25 03:39:06;;;;;;;40.17;35.95;;;17.30;96.90;;;;;;5066715;28;20129;-67
2023/10/25 03:41:31;;;;;;;40.42;34.35;;;17.20;99.90;;;;;;5065192;28;20086;-67
2023/10/25 03:43:57;;;;;;;39.90;35.72;;;17.50;99.90;;;;;;5066162;28;20048;-67
2023/10/25 03:46:22;;;;;;;38.33;34.08;;;17.40;99.90;;;;;;5066808;28;20489;-67
2023/10/25 03:48:48;;;;;;;40.35;34.05;;;17.20;99.90;;;;;;5067860;28;20097;-67
2023/10/25 03:51:14;;;;;;;40.08;35.83;;;17.30;99.90;;;;;;5069332;28;20048;-67
2023/10/25 03:53:40;;;;;;;40.83;36.45;;;17.20;96.30;;;;;;5070401;28;20884;-67
2023/10/25 03:56:05;;;;;;;47.40;37.97;;;17.30;99.90;;;;;;5069603;28;20048;-67
2023/10/25 03:58:31;;;;;;;44.38;38.15;;;17.00;99.90;;;;;;5069349;28;20510;-67
2023/10/25 04:01:02;;;;;;;46.88;38.42;;;17.00;99.90;;;;;;5068747;28;20037;-67
2023/10/25 04:03:28;;;;;;;48.35;39.67;;;17.20;99.90;;;;;;5069695;28;20047;-67
2023/10/25 04:05:54;;;;;;;48.35;39.25;;;17.00;99.90;;;;;;5080459;28;20123;-67
2023/10/25 04:08:20;;;;;;;48.65;41.60;;;17.40;99.90;;;;;;5068383;28;20069;-67
2023/10/25 04:10:50;;;;;;;44.85;40.03;;;17.10;99.90;;;;;;5069428;28;20041;-67
2023/10/25 04:13:16;;;;;;;45.08;40.35;;;17.00;99.90;;;;;;5069358;28;20091;-67
2023/10/25 04:15:42;;;;;;;45.03;40.28;;;16.90;99.90;;;;;;5066015;28;20036;-67
2023/10/25 04:18:09;;;;;;;47.25;42.45;;;17.10;99.90;;;;;;5064485;28;20502;-68
2023/10/25 04:20:35;;;;;;;49.75;44.58;;;16.80;99.90;;;;;;5069027;28;20383;-67
2023/10/25 04:23:00;;;;;;;52.30;44.97;;;17.00;99.90;;;;;;5069760;28;20041;-67
2023/10/25 04:25:26;;;;;;;51.83;46.05;;;17.10;99.90;;;;;;5065895;28;20036;-67
2023/10/25 04:27:53;;;;;;;54.72;46.25;;;17.10;99.90;;;;;;5069033;28;20111;-66
2023/10/25 04:30:18;;;;;;;54.65;48.80;;;17.00;99.90;;;;;;5061899;28;20040;-67
2023/10/25 04:32:46;;;;;;;52.55;46.85;;;17.10;99.90;;;;;;5069433;28;20036;-67
2023/10/25 04:35:12;;;;;;;54.80;49.22;;;16.80;99.90;;;;;;5065650;28;20120;-67
2023/10/25 04:37:37;;;;;;;55.30;48.78;;;17.00;1.00;;;;;;5068661;28;20119;-67
2023/10/25 04:40:04;;;;;;;54.88;47.70;;;16.70;1.00;;;;;;5068767;28;20148;-67
2023/10/25 04:42:29;;;;;;;54.78;48.78;;;16.90;1.00;;;;;;5068910;28;20032;-62
2023/10/25 04:44:55;;;;;;;58.00;48.75;;;17.10;1.00;;;;;;5068296;28;20085;-63
2023/10/25 04:47:20;;;;;;;53.50;47.92;;;17.00;1.00;;;;;;5068273;28;20097;-62
2023/10/25 04:49:46;;;;;;;55.20;49.25;;;17.10;1.00;;;;;;5068271;28;20079;-62
2023/10/25 04:52:11;;;;;;;55.67;49.80;;;17.50;30.00;;;;;;5068975;28;20426;-62
2023/10/25 04:54:37;;;;;;;56.78;50.83;;;16.80;64.90;;;;;;5083074;28;20080;-62
2023/10/25 04:57:03;;;;;;;61.00;53.03;;;16.90;98.70;;;;;;5051259;28;20497;-62
2023/10/25 04:59:29;;;;;;;58.30;51.25;;;17.00;99.90;;;;;;5059170;28;20037;-61
2023/10/25 05:01:55;;;;;;;57.03;51.15;;;17.00;99.90;;;;;;5061767;28;20037;-61
2023/10/25 05:04:20;;;;;;;58.00;51.78;;;17.10;99.90;;;;;;5068006;28;20051;-62
2023/10/25 05:06:47;;;;;;;60.83;52.40;;;17.10;99.90;;;;;;5067391;28;20502;-62
2023/10/25 05:09:12;;;;;;;59.00;50.75;;;16.80;99.90;;;;;;5059305;28;20053;-63
2023/10/25 05:11:39;;;;;;;58.58;51.92;;;17.20;99.90;;;;;;5063544;28;20044;-63
2023/10/25 05:14:06;;;;;;;61.35;50.72;;;17.10;99.90;;;;;;5057214;28;20044;-62
2023/10/25 05:16:31;;;;;;;57.75;50.67;;;17.10;99.90;;;;;;5064044;28;20131;-63
2023/10/25 05:18:57;;;;;;;54.95;49.17;;;17.10;99.90;;;;;;5064425;28;20119;-62
2023/10/25 05:21:27;;;;;;;57.75;50.47;;;17.00;99.90;;;;;;5064537;28;20160;-62
2023/10/25 05:23:52;;;;;;;55.35;49.42;;;17.10;99.90;;;;;;5066306;28;20083;-63
2023/10/25 05:26:18;;;;;;;56.60;48.72;;;17.00;99.90;;;;;;5065969;28;20470;-62
2023/10/25 05:28:44;;;;;;;58.00;51.22;;;16.80;99.90;;;;;;5066713;28;20075;-61
2023/10/25 05:31:16;;;;;;;60.20;52.20;;;16.80;99.90;;;;;;5063176;28;20127;-62
2023/10/25 05:33:41;;;;;;;58.50;50.03;;;16.70;99.90;;;;;;5063652;28;20052;-63
2023/10/25 05:36:08;;;;;;;56.53;50.47;;;16.60;99.90;;;;;;5066295;28;20052;-64
2023/10/25 05:38:33;;;;;;;56.22;50.50;;;16.90;99.90;;;;;;5066797;28;20071;-62
2023/10/25 05:40:59;;;;;;;59.53;52.22;;;16.60;99.90;;;;;;5065122;28;20036;-62
2023/10/25 05:43:29;;;;;;;57.60;51.47;;;16.80;99.90;;;;;;5066631;28;20037;-61
2023/10/25 05:45:54;;;;;;;56.00;49.72;;;16.80;99.90;;;;;;5064815;28;20568;-64
2023/10/25 05:48:20;;;;;;;59.03;50.95;;;16.70;99.90;;;;;;5082659;28;20037;-62
2023/10/25 05:50:49;;;;;;;59.58;51.38;;;16.80;1.00;;;;;;5066508;28;20044;-62
2023/10/25 05:53:15;;;;;;;59.63;52.75;;;16.70;1.00;;;;;;5065719;28;20102;-72
2023/10/25 05:55:41;;;;;;;58.45;52.38;;;17.10;1.00;;;;;;5066242;28;20036;-70
2023/10/25 05:58:07;;;;;;;57.97;51.78;;;17.00;1.00;;;;;;5067049;28;20036;-71
2023/10/25 06:00:34;;;;;;;64.70;54.67;;;17.20;44.70;;;;;;5065807;28;20064;-70
2023/10/25 06:03:01;;;;;;;59.03;52.92;;;17.20;80.20;;;;;;5064866;28;20044;-72
2023/10/25 06:05:30;;;;;;;58.67;52.65;;;17.20;99.90;;;;;;5063774;28;20540;-70
2023/10/25 06:07:56;;;;;;;57.55;51.30;;;17.00;99.90;;;;;;5065407;28;20569;-69
2023/10/25 06:10:22;;;;;;;56.83;50.85;;;16.90;99.90;;;;;;5063196;28;20127;-69
2023/10/25 06:12:48;;;;;;;58.55;51.70;;;17.10;99.90;;;;;;5063760;28;20036;-70
2023/10/25 06:15:14;;;;;;;56.22;50.15;;;16.80;99.90;;;;;;5076286;28;20040;-71
2023/10/25 06:17:39;;;;;;;56.42;50.42;;;17.00;85.80;;;;;;5061684;28;20379;-69
2023/10/25 06:20:06;;;;;;;58.08;51.83;;;16.80;57.20;;;;;;5064954;28;20054;-71
2023/10/25 06:22:31;;;;;;;57.95;51.28;;;16.60;34.80;;;;;;5059322;28;20096;-67
2023/10/25 06:24:57;;;;;;;62.45;51.95;;;16.50;20.80;;;;;;5061255;28;20156;-71
2023/10/25 06:27:22;;;;;;;58.25;52.25;;;16.50;24.90;;;;;;5064709;28;20146;-70
2023/10/25 06:29:48;;;;;;;58.95;52.35;;;16.70;29.10;;;;;;5066980;28;20044;-71
2023/10/25 06:32:13;;;;;;;59.70;52.78;;;16.60;22.10;;;;;;5066612;28;20414;-71
2023/10/25 06:34:39;;;;;;;61.72;53.22;;;16.50;36.60;;;;;;5066827;28;20052;-72
2023/10/25 06:37:06;;;;;;;57.92;51.50;;;16.40;56.70;;;;;;5065756;28;20485;-72
2023/10/25 06:39:31;;;;;;;63.67;53.55;;;16.50;85.40;;;;;;5066276;28;20494;-69
2023/10/25 06:41:57;;;;;;;60.50;54.08;;;16.80;99.90;;;;;;5066883;28;20051;-72
2023/10/25 06:44:25;;;;;;;63.95;54.22;;;16.90;99.90;;;;;;5069176;28;20039;-70
2023/10/25 06:46:51;;;;;;;60.22;53.78;;;16.80;99.90;;;;;;5067038;28;20044;-70
2023/10/25 06:49:16;;;;;;;58.88;52.40;;;17.00;99.90;;;;;;5066468;28;20047;-69
2023/10/25 06:51:43;;;;;;;59.78;52.42;;;16.70;99.90;;;;;;5066565;28;20048;-73
2023/10/25 06:54:10;;;;;;;57.03;50.35;;;17.10;99.90;;;;;;5063060;28;20056;-71
2023/10/25 06:56:36;;;;;;;56.30;50.42;;;16.90;99.90;;;;;;5062150;28;20075;-68
2023/10/25 06:59:02;;;;;;;56.40;50.30;;;17.10;99.90;;;;;;5061910;28;20119;-71
2023/10/25 07:01:31;;;;;;;58.60;51.67;;;17.10;99.90;;;;;;5062746;28;20506;-70
2023/10/25 07:03:59;;;;;;;54.42;48.58;;;17.10;99.90;;;;;;5068403;28;20045;-64
2023/10/25 07:06:25;;;;;;;54.38;48.60;;;16.90;99.90;;;;;;5063479;28;20048;-65
2023/10/25 07:08:51;;;;;;;52.50;47.05;;;16.70;99.90;;;;;;5061314;28;20051;-66
2023/10/25 07:11:16;;;;;;;55.80;48.35;;;16.80;99.90;;;;;;5064753;28;20044;-64
2023/10/25 07:13:42;;;;;;;53.22;47.60;;;16.70;99.90;;;;;;5053257;28;20072;-64
2023/10/25 07:16:08;;;;;;;51.50;45.90;;;16.70;99.90;;;;;;5063651;28;20048;-65
2023/10/25 07:18:33;;;;;;;53.20;47.63;;;16.90;99.90;;;;;;5064256;28;20427;-65
2023/10/25 07:20:59;;;;;;;53.30;47.47;;;16.70;99.90;;;;;;5064512;28;20151;-65
2023/10/25 07:23:25;;;;;;;51.13;45.90;;;16.80;99.90;;;;;;5063004;28;20086;-65
2023/10/25 07:25:52;;;;;;;51.95;46.33;;;17.00;99.90;;;;;;5066951;28;20086;-65
2023/10/25 07:28:17;;;;;;;52.35;47.15;;;16.90;99.90;;;;;;5085213;28;20036;-64
2023/10/25 07:30:43;;;;;;;52.80;47.45;;;16.80;99.90;;;;;;5066504;28;20062;-65
2023/10/25 07:33:10;;;;;;;51.42;46.10;;;16.80;99.90;;;;;;5061729;28;20159;-65
2023/10/25 07:35:35;;;;;;;51.10;45.80;;;16.80;99.90;;;;;;5065407;28;20504;-64
2023/10/25 07:38:01;;;;;;;51.83;46.47;;;16.70;1.00;;;;;;5066562;28;20060;-65
2023/10/25 07:40:26;;;;;;;51.13;45.55;;;17.00;1.00;;;;;;5065583;28;20410;-65
2023/10/25 07:42:52;;;;;;;49.00;43.92;;;16.90;1.00;;;;;;5065036;28;20036;-65
2023/10/25 07:45:17;;;;;;;48.58;43.88;;;17.00;1.00;;;;;;5066484;28;20042;-65
2023/10/25 07:47:43;;;;;;;50.97;45.78;;;17.00;1.00;;;;;;5065290;28;20058;-65
2023/10/25 07:50:09;;;;;;;51.67;46.30;;;16.80;1.00;;;;;;5065816;28;20079;-65
2023/10/25 07:52:35;;;;;;;49.85;44.83;;;17.10;1.00;;;;;;5066820;28;20036;-65
2023/10/25 07:55:03;;;;;;;48.55;43.72;;;17.10;1.00;;;;;;5065926;28;20080;-66
2023/10/25 07:57:29;;;;;;;49.53;44.25;;;17.00;1.00;;;;;;5066132;28;20045;-65
2023/10/25 07:59:55;;;;;;;48.05;43.30;;;17.00;1.00;;;;;;5067468;28;20079;-65
2023/10/25 08:02:20;;;;;;;48.63;43.47;;;16.90;1.00;;;;;;5068250;28;20076;-65
2023/10/25 08:04:46;;;;;;;46.58;41.70;;;16.80;1.00;;;;;;5065964;28;20048;-65
2023/10/25 08:07:11;;;;;;;47.75;42.90;;;17.00;1.00;;;;;;5066157;28;20047;-65
2023/10/25 08:09:40;;;;;;;48.70;43.83;;;17.00;1.00;;;;;;5065006;28;20043;-65
2023/10/25 08:12:06;;;;;;;50.88;42.40;;;16.90;1.00;;;;;;5063383;28;20040;-65
2023/10/25 08:14:31;;;;;;;47.55;42.80;;;16.70;1.00;;;;;;5062743;28;20672;-65
2023/10/25 08:16:57;;;;;;;47.83;42.72;;;16.70;1.00;;;;;;5061494;28;20890;-64
2023/10/25 08:19:22;;;;;;;48.67;43.75;;;16.90;1.00;;;;;;5063900;28;20505;-65
2023/10/25 08:21:48;;;;;;;47.72;42.80;;;16.70;1.00;;;;;;5065755;28;20577;-65
2023/10/25 08:24:14;;;;;;;48.58;43.38;;;16.80;1.00;;;;;;5064043;28;20099;-65
2023/10/25 08:26:39;;;;;;;48.20;43.53;;;16.40;1.00;;;;;;5061834;28;20040;-65
2023/10/25 08:29:06;;;;;;;48.50;43.67;;;18.30;1.00;;;;;;5061348;28;20066;-64
2023/10/25 08:31:32;;;;;;;47.90;43.17;;;16.40;1.00;;;;;;5061574;28;20506;-64
2023/10/25 08:33:59;;;;;;;47.42;41.55;;;16.60;1.00;;;;;;5057681;28;20048;-65
2023/10/25 08:36:25;;;;;;;46.95;42.42;;;16.60;1.00;;;;;;5046966;28;20047;-64
2023/10/25 08:38:50;;;;;;;47.22;42.55;;;16.30;1.00;;;;;;5063246;28;20411;-65
2023/10/25 08:41:19;;;;;;;47.50;42.45;;;16.40;1.00;;;;;;5062264;28;20414;-65
2023/10/25 08:43:45;;;;;;;48.78;43.53;;;16.30;99.90;;;;;;5061064;28;20082;-65
2023/10/25 08:46:11;;;;;;;47.63;42.92;;;16.60;99.90;;;;;;5058909;28;20143;-65
2023/10/25 08:48:36;;;;;;;49.25;44.30;;;16.30;99.90;;;;;;5065606;28;20067;-65
2023/10/25 08:51:03;;;;;;;47.22;42.63;;;16.30;99.90;;;;;;5063879;28;20059;-65
2023/10/25 08:53:30;;;;;;;46.33;41.55;;;16.40;99.90;;;;;;5064280;28;20119;-65
2023/10/25 08:55:57;;;;;;;47.65;43.05;;;16.60;99.90;;;;;;5064081;28;20036;-65
2023/10/25 08:58:24;;;;;;;46.63;41.63;;;16.40;99.90;;;;;;5062957;28;20893;-65
2023/10/25 09:00:51;;;;;;;46.03;41.45;;;16.50;99.90;;;;;;5060267;28;20037;-65
2023/10/25 09:03:32;;;;;;;47.08;42.20;;;16.60;99.90;;;;;;5062462;28;20045;-65
2023/10/25 09:06:01;;;;;;;46.25;41.42;;;16.60;99.90;;;;;;5064637;28;20044;-65
2023/10/25 09:08:27;;;;;;;47.58;42.63;;;16.80;99.90;;;;;;5065422;28;20119;-65
2023/10/25 09:10:56;;;;;;;47.38;42.67;;;16.80;99.90;;;;;;5065518;28;20115;-65
2023/10/25 09:13:23;;;;;;;47.30;42.35;;;17.10;99.90;;;;;;5065501;28;20051;-64
2023/10/25 09:15:48;;;;;;;46.63;41.63;;;16.80;99.90;;;;;;5064175;28;20036;-64
2023/10/25 09:18:14;;;;;;;45.15;40.42;;;16.70;99.90;;;;;;5063132;28;20051;-65
2023/10/25 09:20:40;;;;;;;46.47;41.40;;;16.50;99.90;;;;;;5064381;28;20080;-65
2023/10/25 09:23:12;;;;;;;48.15;43.20;;;16.80;99.90;;;;;;5063097;28;20087;-62
2023/10/25 09:25:38;;;;;;;44.92;40.67;;;16.60;99.90;;;;;;5063857;28;20514;-61
2023/10/25 09:28:13;;;;;;;45.63;40.75;;;16.80;99.90;;;;;;5063663;28;20067;-60
2023/10/25 09:30:39;;;;;;;45.25;40.75;;;16.80;90.50;;;;;;5063224;28;20640;-61
2023/10/25 09:33:04;;;;;;;45.15;40.58;;;16.90;61.40;;;;;;5061393;28;20040;-61
2023/10/25 09:35:30;;;;;;;44.05;39.63;;;17.00;31.30;;;;;;5063848;28;20071;-60
2023/10/25 09:37:56;;;;;;;47.80;40.75;;;16.80;16.40;;;;;;5063319;28;20159;-61
2023/10/25 09:40:22;;;;;;;46.20;41.33;;;16.80;1.00;;;;;;5065018;28;20554;-61
2023/10/25 09:42:52;;;;;;;43.88;39.65;;;16.90;1.00;;;;;;5062473;28;20048;-61
2023/10/25 09:45:23;;;;;;;44.60;39.92;;;17.10;1.00;;;;;;5061861;28;20106;-62
2023/10/25 09:47:53;;;;;;;44.85;40.13;;;17.20;1.00;;;;;;5057662;28;20044;-60
2023/10/25 09:50:53;;;;;;;43.75;39.42;;;17.20;1.00;;;;;;5061557;28;20444;-66
2023/10/25 09:53:28;;;;;;;43.95;39.25;;;17.20;1.00;;;;;;5042941;28;20098;-64
2023/10/25 09:56:01;;;;;;;46.38;41.58;;;17.40;1.00;;;;;;5062686;28;20123;-62
2023/10/25 09:58:28;;;;;;;45.80;40.38;;;17.50;1.00;;;;;;5063260;28;20064;-61
2023/10/25 10:00:54;;;;;;;44.47;39.92;;;17.40;1.00;;;;;;5062242;28;20043;-62
2023/10/25 10:03:37;;;;;;;44.05;39.53;;;17.20;1.00;;;;;;5063725;28;20032;-61
2023/10/25 10:06:42;;;;;;;44.30;39.70;;;17.50;99.90;;;;;;5063720;28;20493;-62
2023/10/25 10:09:22;;;;;;;42.55;38.17;;;17.50;99.90;;;;;;5051168;28;20120;-60
2023/10/25 10:11:53;;;;;;;42.58;38.28;;;17.60;99.90;;;;;;5061118;28;20746;-62
2023/10/25 10:14:31;;;;;;;46.70;38.70;;;17.30;99.90;;;;;;5060812;28;20333;-60
2023/10/25 10:17:03;;;;;;;43.25;39.03;;;17.50;99.90;;;;;;5060871;28;20048;-63
2023/10/25 10:19:31;;;;;;;43.20;38.78;;;17.40;59.40;;;;;;5060774;28;20044;-61
2023/10/25 10:22:07;;;;;;;43.03;38.67;;;17.50;8.30;;;;;;5063562;28;20824;-61
2023/10/25 10:24:41;;;;;;;44.50;39.88;;;17.70;1.00;;;;;;5057978;28;20047;-63
2023/10/25 10:27:08;;;;;;;43.20;38.92;;;18.40;1.00;;;;;;5059237;28;20048;-62
2023/10/25 10:29:34;;;;;;;43.20;38.78;;;17.90;1.00;;;;;;5061354;28;20056;-62
2023/10/25 10:32:03;;;;;;;40.95;37.05;;;17.70;1.00;;;;;;5061910;28;20040;-62
2023/10/25 10:34:38;;;;;;;43.03;38.63;;;17.80;99.90;;;;;;5062083;28;20141;-63
2023/10/25 10:37:10;;;;;;;42.88;38.40;;;18.00;99.90;;;;;;5062864;28;20135;-62
2023/10/25 10:39:38;;;;;;;40.90;36.65;;;18.00;99.90;;;;;;5061126;28;20044;-62
2023/10/25 10:42:05;;;;;;;45.28;40.78;;;17.70;99.90;;;;;;5057017;28;20036;-62
2023/10/25 10:44:35;;;;;;;42.63;38.30;;;17.80;99.90;;;;;;5058167;28;20055;-63
2023/10/25 10:47:04;;;;;;;45.40;40.90;;;18.00;62.30;;;;;;5060931;28;20048;-64
2023/10/25 10:49:30;;;;;;;42.60;37.97;;;17.80;1.00;;;;;;5055230;28;20056;-64
2023/10/25 10:51:56;;;;;;;42.65;38.40;;;17.90;1.00;;;;;;5060934;28;20119;-63
2023/10/25 10:54:23;;;;;;;41.75;37.50;;;18.10;99.90;;;;;;5062403;28;20490;-63
2023/10/25 10:56:49;;;;;;;40.95;36.72;;;18.00;99.90;;;;;;5063030;28;20086;-63
2023/10/25 10:59:15;;;;;;;43.38;39.17;;;18.00;99.90;;;;;;5062750;28;20140;-63
2023/10/25 11:01:42;;;;;;;43.58;39.38;;;17.90;99.90;;;;;;5054717;28;20076;-65
2023/10/25 11:04:08;;;;;;;43.28;38.85;;;18.00;99.90;;;;;;5055812;28;20044;-63
2023/10/25 11:06:33;;;;;;;43.45;39.45;;;18.20;80.30;;;;;;5055570;28;20055;-63
2023/10/25 11:08:59;;;;;;;43.30;39.10;;;18.00;5.10;;;;;;5058285;28;20079;-63
2023/10/25 11:11:25;;;;;;;44.08;39.58;;;18.30;1.00;;;;;;5060955;28;20306;-62
2023/10/25 11:13:51;;;;;;;42.55;38.20;;;18.10;1.00;;;;;;5063931;28;20047;-63
2023/10/25 11:16:17;;;;;;;42.83;38.20;;;18.20;99.90;;;;;;5061565;28;20051;-63
2023/10/25 11:18:43;;;;;;;42.30;38.33;;;18.40;99.90;;;;;;5062446;28;20390;-62
2023/10/25 11:21:11;;;;;;;41.58;37.47;;;18.20;99.90;;;;;;5063696;28;20051;-62
2023/10/25 11:23:36;;;;;;;37.88;34.47;;;18.20;67.70;;;;;;5060295;28;20032;-64
2023/10/25 11:26:03;;;;;;;42.10;38.28;;;18.40;1.00;;;;;;5062381;28;20059;-62
2023/10/25 11:28:29;;;;;;;40.47;36.22;;;18.30;1.00;;;;;;5064077;28;20414;-64
2023/10/25 11:31:01;;;;;;;41.90;37.85;;;18.40;1.00;;;;;;5058745;28;20044;-63
2023/10/25 11:33:26;;;;;;;40.97;36.95;;;18.30;99.90;;;;;;5058532;28;20043;-62
2023/10/25 11:35:54;;;;;;;41.13;37.20;;;18.40;99.90;;;;;;5061615;28;20403;-61
2023/10/25 11:38:19;;;;;;;41.47;37.40;;;18.30;99.90;;;;;;5062722;28;20037;-65
2023/10/25 11:40:46;;;;;;;39.03;35.15;;;18.70;99.90;;;;;;5062158;28;20048;-63
2023/10/25 11:43:13;;;;;;;39.70;35.83;;;18.60;21.20;;;;;;5061032;28;20065;-63
2023/10/25 11:45:40;;;;;;;37.58;33.97;;;18.60;1.00;;;;;;5061213;28;21413;-61
2023/10/25 11:48:06;;;;;;;40.05;36.05;;;18.60;1.00;;;;;;5061587;28;20262;-62
2023/10/25 11:50:32;;;;;;;39.85;35.85;;;18.50;1.00;;;;;;5061487;28;20115;-61
2023/10/25 11:53:01;;;;;;;40.95;36.88;;;18.60;99.90;;;;;;5061849;28;20123;-66
2023/10/25 11:55:27;;;;;;;40.33;36.50;;;18.40;99.90;;;;;;5061110;28;20036;-61
2023/10/25 11:57:53;;;;;;;39.30;35.42;;;18.50;99.90;;;;;;5061676;28;20063;-61
2023/10/25 12:00:19;;;;;;;39.17;35.60;;;18.50;84.60;;;;;;5061772;28;20088;-60
2023/10/25 12:02:45;;;;;;;38.55;34.95;;;18.50;30.50;;;;;;5062846;28;20041;-61
2023/10/25 12:05:12;;;;;;;38.45;34.88;;;18.40;1.00;;;;;;5060459;28;20161;-63
2023/10/25 12:07:38;;;;;;;41.63;35.30;;;18.30;1.00;;;;;;5064244;28;20544;-62
2023/10/25 12:10:04;;;;;;;40.10;36.25;;;18.40;1.00;;;;;;5065186;28;20565;-63
2023/10/25 12:12:30;;;;;;;40.17;36.10;;;18.40;1.00;;;;;;5065761;28;20044;-62
2023/10/25 12:14:57;;;;;;;40.63;36.65;;;18.60;1.00;;;;;;5065332;28;20055;-63
2023/10/25 12:17:23;;;;;;;41.20;37.00;;;18.70;1.00;;;;;;5065761;28;20045;-61
2023/10/25 12:19:50;;;;;;;40.85;36.92;;;18.50;99.90;;;;;;5065366;28;20351;-62
2023/10/25 12:22:18;;;;;;;40.15;36.05;;;18.50;99.90;;;;;;5065806;28;20320;-63
2023/10/25 12:24:44;;;;;;;39.75;35.95;;;18.60;99.90;;;;;;5064216;28;20040;-62
2023/10/25 12:27:09;;;;;;;39.42;35.83;;;18.50;99.90;;;;;;5061369;28;20898;-60
2023/10/25 12:29:36;;;;;;;39.47;35.67;;;18.80;99.90;;;;;;5066366;28;20056;-60